sensor_id;sensor_type;location;lat;lon;timestamp;temperature;humidity
58153;DHT22;43967;51.634;5.566;2023-02-28T00:04:48;16.90;50.40
58153;DHT22;43967;51.634;5.566;2023-02-28T00:10:12;17.00;50.40
58153;DHT22;43967;51.634;5.566;2023-02-28T00:15:33;17.00;50.40
58153;DHT22;43967;51.634;5.566;2023-02-28T00:20:54;17.00;50.30
58153;DHT22;43967;51.634;5.566;2023-02-28T00:26:16;17.10;50.30
58153;DHT22;43967;51.634;5.566;2023-02-28T00:31:37;17.10;50.30
58153;DHT22;43967;51.634;5.566;2023-02-28T00:36:59;17.10;50.30
58153;DHT22;43967;51.634;5.566;2023-02-28T00:42:20;17.00;50.20
58153;DHT22;43967;51.634;5.566;2023-02-28T00:47:41;17.00;50.20
58153;DHT22;43967;51.634;5.566;2023-02-28T00:53:02;17.00;50.20
58153;DHT22;43967;51.634;5.566;2023-02-28T00:58:24;17.00;50.10
58153;DHT22;43967;51.634;5.566;2023-02-28T01:03:45;16.90;49.90
58153;DHT22;43967;51.634;5.566;2023-02-28T01:09:07;16.90;49.70
58153;DHT22;43967;51.634;5.566;2023-02-28T01:14:28;16.90;49.50
58153;DHT22;43967;51.634;5.566;2023-02-28T01:19:49;16.90;49.30
58153;DHT22;43967;51.634;5.566;2023-02-28T01:25:13;16.90;49.30
58153;DHT22;43967;51.634;5.566;2023-02-28T01:30:35;16.90;49.30
58153;DHT22;43967;51.634;5.566;2023-02-28T01:41:24;16.80;49.20
58153;DHT22;43967;51.634;5.566;2023-02-28T01:46:46;16.80;49.10
58153;DHT22;43967;51.634;5.566;2023-02-28T01:52:08;16.80;49.20
58153;DHT22;43967;51.634;5.566;2023-02-28T01:57:36;16.70;49.00
58153;DHT22;43967;51.634;5.566;2023-02-28T02:03:03;16.70;49.10
58153;DHT22;43967;51.634;5.566;2023-02-28T02:08:26;16.70;49.00
58153;DHT22;43967;51.634;5.566;2023-02-28T02:42:48;16.50;49.00
58153;DHT22;43967;51.634;5.566;2023-02-28T02:48:15;16.40;49.00
58153;DHT22;43967;51.634;5.566;2023-02-28T02:53:46;16.40;49.10
58153;DHT22;43967;51.634;5.566;2023-02-28T02:59:11;16.40;49.10
58153;DHT22;43967;51.634;5.566;2023-02-28T03:04:38;16.30;49.20
58153;DHT22;43967;51.634;5.566;2023-02-28T03:10:01;16.30;49.20
58153;DHT22;43967;51.634;5.566;2023-02-28T03:16:20;16.30;49.40
58153;DHT22;43967;51.634;5.566;2023-02-28T03:21:31;16.30;49.50
58153;DHT22;43967;51.634;5.566;2023-02-28T03:27:03;16.40;49.60
58153;DHT22;43967;51.634;5.566;2023-02-28T03:33:08;16.50;49.70
58153;DHT22;43967;51.634;5.566;2023-02-28T03:38:49;16.60;49.70
58153;DHT22;43967;51.634;5.566;2023-02-28T03:44:19;16.60;49.70
58153;DHT22;43967;51.634;5.566;2023-02-28T03:49:51;16.70;49.80
58153;DHT22;43967;51.634;5.566;2023-02-28T03:55:15;16.70;49.80
58153;DHT22;43967;51.634;5.566;2023-02-28T04:00:41;16.80;49.80
58153;DHT22;43967;51.634;5.566;2023-02-28T04:06:06;16.80;49.80
58153;DHT22;43967;51.634;5.566;2023-02-28T04:11:45;16.90;49.80
58153;DHT22;43967;51.634;5.566;2023-02-28T04:17:10;16.90;49.80
58153;DHT22;43967;51.634;5.566;2023-02-28T04:22:31;17.00;49.80
58153;DHT22;43967;51.634;5.566;2023-02-28T04:27:52;17.00;49.80
58153;DHT22;43967;51.634;5.566;2023-02-28T04:33:13;17.00;49.80
58153;DHT22;43967;51.634;5.566;2023-02-28T04:38:36;17.10;49.80
58153;DHT22;43967;51.634;5.566;2023-02-28T04:43:58;17.10;49.80
58153;DHT22;43967;51.634;5.566;2023-02-28T04:49:19;17.10;49.70
58153;DHT22;43967;51.634;5.566;2023-02-28T04:54:41;17.10;49.70
58153;DHT22;43967;51.634;5.566;2023-02-28T05:00:02;17.10;49.70
58153;DHT22;43967;51.634;5.566;2023-02-28T05:05:23;17.20;49.70
58153;DHT22;43967;51.634;5.566;2023-02-28T05:10:45;17.20;49.70
58153;DHT22;43967;51.634;5.566;2023-02-28T05:16:06;17.20;49.60
58153;DHT22;43967;51.634;5.566;2023-02-28T05:21:31;17.10;49.60
58153;DHT22;43967;51.634;5.566;2023-02-28T05:26:54;17.10;49.60
58153;DHT22;43967;51.634;5.566;2023-02-28T05:32:15;17.10;49.60
58153;DHT22;43967;51.634;5.566;2023-02-28T05:37:37;17.00;49.50
58153;DHT22;43967;51.634;5.566;2023-02-28T05:42:59;17.00;49.50
58153;DHT22;43967;51.634;5.566;2023-02-28T05:48:20;16.90;49.40
58153;DHT22;43967;51.634;5.566;2023-02-28T05:53:42;16.90;49.50
58153;DHT22;43967;51.634;5.566;2023-02-28T05:59:03;16.80;49.40
58153;DHT22;43967;51.634;5.566;2023-02-28T06:04:24;16.80;49.50
58153;DHT22;43967;51.634;5.566;2023-02-28T06:09:46;16.80;49.50
58153;DHT22;43967;51.634;5.566;2023-02-28T06:15:16;16.80;49.50
58153;DHT22;43967;51.634;5.566;2023-02-28T06:20:37;16.80;49.40
58153;DHT22;43967;51.634;5.566;2023-02-28T06:25:59;16.70;49.40
58153;DHT22;43967;51.634;5.566;2023-02-28T06:31:21;16.70;49.30
58153;DHT22;43967;51.634;5.566;2023-02-28T06:36:43;16.70;49.30
58153;DHT22;43967;51.634;5.566;2023-02-28T06:42:04;16.60;49.10
58153;DHT22;43967;51.634;5.566;2023-02-28T06:47:25;16.60;49.00
58153;DHT22;43967;51.634;5.566;2023-02-28T06:52:47;16.50;48.80
58153;DHT22;43967;51.634;5.566;2023-02-28T06:58:08;16.60;48.90
58153;DHT22;43967;51.634;5.566;2023-02-28T07:03:30;16.60;48.70
58153;DHT22;43967;51.634;5.566;2023-02-28T07:08:52;16.60;48.60
58153;DHT22;43967;51.634;5.566;2023-02-28T07:14:14;16.70;48.70
58153;DHT22;43967;51.634;5.566;2023-02-28T07:19:35;16.70;48.80
58153;DHT22;43967;51.634;5.566;2023-02-28T07:24:56;16.80;48.80
58153;DHT22;43967;51.634;5.566;2023-02-28T07:30:18;16.80;48.90
58153;DHT22;43967;51.634;5.566;2023-02-28T07:35:39;16.90;49.00
58153;DHT22;43967;51.634;5.566;2023-02-28T07:41:01;17.00;49.00
58153;DHT22;43967;51.634;5.566;2023-02-28T07:46:22;17.00;48.90
58153;DHT22;43967;51.634;5.566;2023-02-28T07:51:44;17.10;48.70
58153;DHT22;43967;51.634;5.566;2023-02-28T07:57:05;17.40;48.50
58153;DHT22;43967;51.634;5.566;2023-02-28T08:02:26;17.50;48.40
58153;DHT22;43967;51.634;5.566;2023-02-28T08:07:49;17.70;48.20
58153;DHT22;43967;51.634;5.566;2023-02-28T08:13:10;17.90;47.80
58153;DHT22;43967;51.634;5.566;2023-02-28T08:18:32;18.00;47.80
58153;DHT22;43967;51.634;5.566;2023-02-28T08:23:53;17.90;48.00
58153;DHT22;43967;51.634;5.566;2023-02-28T08:29:15;17.70;48.10
58153;DHT22;43967;51.634;5.566;2023-02-28T08:34:39;17.70;48.20
58153;DHT22;43967;51.634;5.566;2023-02-28T08:40:00;17.60;48.10
58153;DHT22;43967;51.634;5.566;2023-02-28T08:45:21;17.60;48.20
58153;DHT22;43967;51.634;5.566;2023-02-28T08:50:42;17.50;48.00
58153;DHT22;43967;51.634;5.566;2023-02-28T09:01:28;17.50;48.00
58153;DHT22;43967;51.634;5.566;2023-02-28T09:06:49;17.50;47.90
58153;DHT22;43967;51.634;5.566;2023-02-28T09:12:10;17.50;47.80
58153;DHT22;43967;51.634;5.566;2023-02-28T09:17:32;17.40;47.60
58153;DHT22;43967;51.634;5.566;2023-02-28T09:22:53;17.40;47.50
58153;DHT22;43967;51.634;5.566;2023-02-28T09:28:15;17.40;47.40
58153;DHT22;43967;51.634;5.566;2023-02-28T09:33:36;17.40;47.40
58153;DHT22;43967;51.634;5.566;2023-02-28T09:38:58;17.40;47.40
58153;DHT22;43967;51.634;5.566;2023-02-28T09:44:24;17.30;47.20
58153;DHT22;43967;51.634;5.566;2023-02-28T09:49:48;17.30;47.20
58153;DHT22;43967;51.634;5.566;2023-02-28T09:55:33;17.40;47.20
58153;DHT22;43967;51.634;5.566;2023-02-28T10:06:50;17.30;47.10
58153;DHT22;43967;51.634;5.566;2023-02-28T10:12:13;17.30;47.60
58153;DHT22;43967;51.634;5.566;2023-02-28T10:17:40;17.20;46.80
58153;DHT22;43967;51.634;5.566;2023-02-28T10:23:13;17.20;46.80
58153;DHT22;43967;51.634;5.566;2023-02-28T10:28:37;17.20;46.70
58153;DHT22;43967;51.634;5.566;2023-02-28T10:33:58;17.20;46.70
58153;DHT22;43967;51.634;5.566;2023-02-28T10:39:55;17.20;47.30
58153;DHT22;43967;51.634;5.566;2023-02-28T10:45:17;17.20;46.50
58153;DHT22;43967;51.634;5.566;2023-02-28T10:50:51;17.20;46.50
58153;DHT22;43967;51.634;5.566;2023-02-28T10:56:39;17.20;46.30
58153;DHT22;43967;51.634;5.566;2023-02-28T11:02:01;17.20;46.30
58153;DHT22;43967;51.634;5.566;2023-02-28T11:07:24;17.20;46.30
58153;DHT22;43967;51.634;5.566;2023-02-28T11:12:46;17.10;46.20
58153;DHT22;43967;51.634;5.566;2023-02-28T11:18:23;17.10;46.20
58153;DHT22;43967;51.634;5.566;2023-02-28T11:23:46;17.10;46.40
58153;DHT22;43967;51.634;5.566;2023-02-28T11:29:18;17.10;46.30
58153;DHT22;43967;51.634;5.566;2023-02-28T11:34:41;17.10;46.40
58153;DHT22;43967;51.634;5.566;2023-02-28T11:40:09;17.10;46.40
58153;DHT22;43967;51.634;5.566;2023-02-28T11:51:20;17.10;46.40
58153;DHT22;43967;51.634;5.566;2023-02-28T11:56:44;17.00;46.40
58153;DHT22;43967;51.634;5.566;2023-02-28T12:08:15;17.00;46.40
58153;DHT22;43967;51.634;5.566;2023-02-28T12:19:56;16.90;46.30
58153;DHT22;43967;51.634;5.566;2023-02-28T12:25:33;16.90;46.20
58153;DHT22;43967;51.634;5.566;2023-02-28T12:31:01;16.90;46.10
58153;DHT22;43967;51.634;5.566;2023-02-28T12:36:24;16.90;46.10
58153;DHT22;43967;51.634;5.566;2023-02-28T12:41:53;16.90;46.10
58153;DHT22;43967;51.634;5.566;2023-02-28T12:47:18;16.90;46.20
58153;DHT22;43967;51.634;5.566;2023-02-28T12:58:58;16.90;46.00
58153;DHT22;43967;51.634;5.566;2023-02-28T13:10:04;16.90;46.00
58153;DHT22;43967;51.634;5.566;2023-02-28T13:15:28;16.90;46.00
58153;DHT22;43967;51.634;5.566;2023-02-28T13:20:49;16.80;46.00
58153;DHT22;43967;51.634;5.566;2023-02-28T13:26:10;16.80;46.20
58153;DHT22;43967;51.634;5.566;2023-02-28T13:31:32;16.80;46.30
58153;DHT22;43967;51.634;5.566;2023-02-28T13:37:30;16.90;46.50
58153;DHT22;43967;51.634;5.566;2023-02-28T13:42:52;17.00;46.40
58153;DHT22;43967;51.634;5.566;2023-02-28T13:48:26;17.00;46.40
58153;DHT22;43967;51.634;5.566;2023-02-28T13:53:57;17.10;46.30
58153;DHT22;43967;51.634;5.566;2023-02-28T14:05:05;17.20;46.30
58153;DHT22;43967;51.634;5.566;2023-02-28T14:10:36;17.20;46.30
58153;DHT22;43967;51.634;5.566;2023-02-28T14:16:00;17.20;46.30
58153;DHT22;43967;51.634;5.566;2023-02-28T14:21:34;17.20;46.40
58153;DHT22;43967;51.634;5.566;2023-02-28T14:38:25;17.10;46.10
58153;DHT22;43967;51.634;5.566;2023-02-28T14:44:00;17.10;46.50
58153;DHT22;43967;51.634;5.566;2023-02-28T14:49:32;17.10;46.70
58153;DHT22;43967;51.634;5.566;2023-02-28T14:55:04;17.10;46.90
58153;DHT22;43967;51.634;5.566;2023-02-28T15:00:28;17.00;46.90
58153;DHT22;43967;51.634;5.566;2023-02-28T15:06:03;17.00;46.80
58153;DHT22;43967;51.634;5.566;2023-02-28T15:11:25;16.90;46.70
58153;DHT22;43967;51.634;5.566;2023-02-28T15:16:50;16.90;46.70
58153;DHT22;43967;51.634;5.566;2023-02-28T15:22:16;16.90;46.60
58153;DHT22;43967;51.634;5.566;2023-02-28T15:27:54;16.90;46.60
58153;DHT22;43967;51.634;5.566;2023-02-28T15:38:37;16.80;46.60
58153;DHT22;43967;51.634;5.566;2023-02-28T15:44:24;16.90;46.70
58153;DHT22;43967;51.634;5.566;2023-02-28T15:49:50;16.80;46.60
58153;DHT22;43967;51.634;5.566;2023-02-28T15:55:21;16.80;46.60
58153;DHT22;43967;51.634;5.566;2023-02-28T16:00:44;16.80;46.70
58153;DHT22;43967;51.634;5.566;2023-02-28T16:11:55;16.80;46.60
58153;DHT22;43967;51.634;5.566;2023-02-28T16:17:21;16.80;46.70
58153;DHT22;43967;51.634;5.566;2023-02-28T16:22:43;16.80;46.70
58153;DHT22;43967;51.634;5.566;2023-02-28T16:28:19;16.70;46.80
58153;DHT22;43967;51.634;5.566;2023-02-28T16:33:41;16.60;46.60
58153;DHT22;43967;51.634;5.566;2023-02-28T16:39:02;16.70;46.20
58153;DHT22;43967;51.634;5.566;2023-02-28T16:44:34;16.70;45.80
58153;DHT22;43967;51.634;5.566;2023-02-28T16:49:56;16.80;45.80
58153;DHT22;43967;51.634;5.566;2023-02-28T16:55:18;16.80;45.80
58153;DHT22;43967;51.634;5.566;2023-02-28T17:00:39;16.90;46.60
58153;DHT22;43967;51.634;5.566;2023-02-28T17:06:01;16.90;46.10
58153;DHT22;43967;51.634;5.566;2023-02-28T17:11:22;17.00;46.40
58153;DHT22;43967;51.634;5.566;2023-02-28T17:16:43;17.00;46.50
58153;DHT22;43967;51.634;5.566;2023-02-28T17:22:05;17.10;46.60
58153;DHT22;43967;51.634;5.566;2023-02-28T17:27:26;17.10;46.60
58153;DHT22;43967;51.634;5.566;2023-02-28T17:32:47;17.10;46.60
58153;DHT22;43967;51.634;5.566;2023-02-28T17:38:18;17.20;46.70
58153;DHT22;43967;51.634;5.566;2023-02-28T17:43:39;17.20;46.70
58153;DHT22;43967;51.634;5.566;2023-02-28T17:49:01;17.10;46.70
58153;DHT22;43967;51.634;5.566;2023-02-28T17:54:22;17.10;46.80
58153;DHT22;43967;51.634;5.566;2023-02-28T17:59:43;17.00;46.80
58153;DHT22;43967;51.634;5.566;2023-02-28T18:05:05;17.00;46.80
58153;DHT22;43967;51.634;5.566;2023-02-28T18:10:27;17.00;46.90
58153;DHT22;43967;51.634;5.566;2023-02-28T18:15:48;16.90;46.90
58153;DHT22;43967;51.634;5.566;2023-02-28T18:21:11;16.80;46.80
58153;DHT22;43967;51.634;5.566;2023-02-28T18:26:33;16.80;46.70
58153;DHT22;43967;51.634;5.566;2023-02-28T18:31:55;16.80;46.80
58153;DHT22;43967;51.634;5.566;2023-02-28T18:37:17;16.80;46.70
58153;DHT22;43967;51.634;5.566;2023-02-28T18:42:38;16.70;46.70
58153;DHT22;43967;51.634;5.566;2023-02-28T18:47:59;16.70;46.70
58153;DHT22;43967;51.634;5.566;2023-02-28T18:53:20;16.70;46.80
58153;DHT22;43967;51.634;5.566;2023-02-28T18:58:42;16.70;46.80
58153;DHT22;43967;51.634;5.566;2023-02-28T19:04:03;16.60;46.70
58153;DHT22;43967;51.634;5.566;2023-02-28T19:09:25;16.60;46.80
58153;DHT22;43967;51.634;5.566;2023-02-28T19:14:46;16.60;46.90
58153;DHT22;43967;51.634;5.566;2023-02-28T19:20:08;16.60;46.90
58153;DHT22;43967;51.634;5.566;2023-02-28T19:25:29;16.70;47.00
58153;DHT22;43967;51.634;5.566;2023-02-28T19:30:51;16.80;47.00
58153;DHT22;43967;51.634;5.566;2023-02-28T19:36:13;16.80;47.00
58153;DHT22;43967;51.634;5.566;2023-02-28T19:41:34;16.90;47.00
58153;DHT22;43967;51.634;5.566;2023-02-28T19:46:56;16.90;47.10
58153;DHT22;43967;51.634;5.566;2023-02-28T19:52:17;16.90;47.00
58153;DHT22;43967;51.634;5.566;2023-02-28T19:57:38;16.90;47.00
58153;DHT22;43967;51.634;5.566;2023-02-28T20:02:59;17.00;47.00
58153;DHT22;43967;51.634;5.566;2023-02-28T20:08:21;17.00;47.00
58153;DHT22;43967;51.634;5.566;2023-02-28T20:13:42;17.00;47.00
58153;DHT22;43967;51.634;5.566;2023-02-28T20:19:04;17.00;47.00
58153;DHT22;43967;51.634;5.566;2023-02-28T20:24:25;17.10;47.10
58153;DHT22;43967;51.634;5.566;2023-02-28T20:29:46;17.10;47.00
58153;DHT22;43967;51.634;5.566;2023-02-28T20:35:08;17.10;47.10
58153;DHT22;43967;51.634;5.566;2023-02-28T20:40:29;17.10;47.00
58153;DHT22;43967;51.634;5.566;2023-02-28T20:45:56;17.20;47.10
58153;DHT22;43967;51.634;5.566;2023-02-28T20:51:17;17.10;47.00
58153;DHT22;43967;51.634;5.566;2023-02-28T20:56:38;17.10;47.00
58153;DHT22;43967;51.634;5.566;2023-02-28T21:02:00;17.10;47.60
58153;DHT22;43967;51.634;5.566;2023-02-28T21:07:21;17.10;47.10
58153;DHT22;43967;51.634;5.566;2023-02-28T21:12:42;17.00;47.00
58153;DHT22;43967;51.634;5.566;2023-02-28T21:18:04;17.00;47.10
58153;DHT22;43967;51.634;5.566;2023-02-28T21:23:25;16.90;47.00
58153;DHT22;43967;51.634;5.566;2023-02-28T21:29:00;16.90;47.00
58153;DHT22;43967;51.634;5.566;2023-02-28T21:34:21;16.80;47.00
58153;DHT22;43967;51.634;5.566;2023-02-28T21:39:43;16.80;46.90
58153;DHT22;43967;51.634;5.566;2023-02-28T21:45:04;16.70;46.90
58153;DHT22;43967;51.634;5.566;2023-02-28T21:50:26;16.70;46.80
58153;DHT22;43967;51.634;5.566;2023-02-28T21:55:47;16.70;46.90
58153;DHT22;43967;51.634;5.566;2023-02-28T22:06:37;16.60;46.80
58153;DHT22;43967;51.634;5.566;2023-02-28T22:11:58;16.60;46.70
58153;DHT22;43967;51.634;5.566;2023-02-28T22:17:20;16.60;46.80
58153;DHT22;43967;51.634;5.566;2023-02-28T22:22:41;16.60;46.70
58153;DHT22;43967;51.634;5.566;2023-02-28T22:28:02;16.50;46.60
58153;DHT22;43967;51.634;5.566;2023-02-28T22:33:25;16.50;46.60
58153;DHT22;43967;51.634;5.566;2023-02-28T22:38:47;16.50;46.50
58153;DHT22;43967;51.634;5.566;2023-02-28T22:44:10;16.50;46.40
58153;DHT22;43967;51.634;5.566;2023-02-28T22:49:31;16.50;46.40
58153;DHT22;43967;51.634;5.566;2023-02-28T22:54:52;16.40;46.30
58153;DHT22;43967;51.634;5.566;2023-02-28T23:00:14;16.40;46.40
58153;DHT22;43967;51.634;5.566;2023-02-28T23:05:35;16.40;46.30
58153;DHT22;43967;51.634;5.566;2023-02-28T23:10:56;16.40;46.40
58153;DHT22;43967;51.634;5.566;2023-02-28T23:16:18;16.40;46.40
58153;DHT22;43967;51.634;5.566;2023-02-28T23:21:39;16.30;46.20
58153;DHT22;43967;51.634;5.566;2023-02-28T23:27:02;16.30;46.20
58153;DHT22;43967;51.634;5.566;2023-02-28T23:32:24;16.30;46.30
58153;DHT22;43967;51.634;5.566;2023-02-28T23:37:45;16.30;46.30
58153;DHT22;43967;51.634;5.566;2023-02-28T23:43:06;16.30;46.20
58153;DHT22;43967;51.634;5.566;2023-02-28T23:48:28;16.20;46.20
58153;DHT22;43967;51.634;5.566;2023-02-28T23:53:50;16.20;46.20
58153;DHT22;43967;51.634;5.566;2023-02-28T23:59:12;16.20;46.10
